sensor_id;sensor_type;location;lat;lon;timestamp;temperature;humidity
2767;DHT22;1391;46.742;11.636;2022-07-22T00:00:04;22.10;60.50
2767;DHT22;1391;46.742;11.636;2022-07-22T00:02:33;22.00;61.50
2767;DHT22;1391;46.742;11.636;2022-07-22T00:05:02;22.00;60.80
2767;DHT22;1391;46.742;11.636;2022-07-22T00:07:29;21.40;62.20
2767;DHT22;1391;46.742;11.636;2022-07-22T00:09:57;21.40;61.60
2767;DHT22;1391;46.742;11.636;2022-07-22T00:12:25;21.40;62.30
2767;DHT22;1391;46.742;11.636;2022-07-22T00:14:52;21.40;62.40
2767;DHT22;1391;46.742;11.636;2022-07-22T00:17:20;21.40;61.50
2767;DHT22;1391;46.742;11.636;2022-07-22T00:19:47;21.30;63.20
2767;DHT22;1391;46.742;11.636;2022-07-22T00:22:15;21.00;63.30
2767;DHT22;1391;46.742;11.636;2022-07-22T00:24:43;21.10;62.80
2767;DHT22;1391;46.742;11.636;2022-07-22T00:27:10;21.20;63.50
2767;DHT22;1391;46.742;11.636;2022-07-22T00:29:37;21.20;65.00
2767;DHT22;1391;46.742;11.636;2022-07-22T00:32:05;21.30;65.70
2767;DHT22;1391;46.742;11.636;2022-07-22T00:34:32;21.30;66.70
2767;DHT22;1391;46.742;11.636;2022-07-22T00:36:59;20.50;67.50
2767;DHT22;1391;46.742;11.636;2022-07-22T00:39:28;20.90;65.30
2767;DHT22;1391;46.742;11.636;2022-07-22T00:41:56;21.40;62.60
2767;DHT22;1391;46.742;11.636;2022-07-22T00:44:23;21.20;67.00
2767;DHT22;1391;46.742;11.636;2022-07-22T00:46:50;21.00;66.10
2767;DHT22;1391;46.742;11.636;2022-07-22T00:49:18;21.10;65.90
2767;DHT22;1391;46.742;11.636;2022-07-22T00:51:46;21.20;63.50
2767;DHT22;1391;46.742;11.636;2022-07-22T00:54:13;21.40;64.90
2767;DHT22;1391;46.742;11.636;2022-07-22T00:56:42;21.30;65.10
2767;DHT22;1391;46.742;11.636;2022-07-22T00:59:11;21.20;66.80
2767;DHT22;1391;46.742;11.636;2022-07-22T01:01:39;20.70;66.40
2767;DHT22;1391;46.742;11.636;2022-07-22T01:04:06;20.70;66.60
2767;DHT22;1391;46.742;11.636;2022-07-22T01:06:34;20.40;64.10
2767;DHT22;1391;46.742;11.636;2022-07-22T01:09:01;20.90;63.60
2767;DHT22;1391;46.742;11.636;2022-07-22T01:11:29;21.00;63.20
2767;DHT22;1391;46.742;11.636;2022-07-22T01:13:57;21.40;62.80
2767;DHT22;1391;46.742;11.636;2022-07-22T01:16:25;21.20;62.70
2767;DHT22;1391;46.742;11.636;2022-07-22T01:18:52;21.10;64.00
2767;DHT22;1391;46.742;11.636;2022-07-22T01:21:21;20.40;65.10
2767;DHT22;1391;46.742;11.636;2022-07-22T01:23:48;20.60;66.70
2767;DHT22;1391;46.742;11.636;2022-07-22T01:26:16;20.40;67.50
2767;DHT22;1391;46.742;11.636;2022-07-22T01:28:44;20.30;67.20
2767;DHT22;1391;46.742;11.636;2022-07-22T01:31:11;19.90;67.00
2767;DHT22;1391;46.742;11.636;2022-07-22T01:33:38;20.30;66.90
2767;DHT22;1391;46.742;11.636;2022-07-22T01:36:07;20.50;66.80
2767;DHT22;1391;46.742;11.636;2022-07-22T01:38:36;20.40;64.70
2767;DHT22;1391;46.742;11.636;2022-07-22T01:41:04;19.80;66.90
2767;DHT22;1391;46.742;11.636;2022-07-22T01:43:31;19.80;66.80
2767;DHT22;1391;46.742;11.636;2022-07-22T01:45:58;19.80;67.30
2767;DHT22;1391;46.742;11.636;2022-07-22T01:48:26;19.80;67.00
2767;DHT22;1391;46.742;11.636;2022-07-22T01:50:53;20.20;68.30
2767;DHT22;1391;46.742;11.636;2022-07-22T01:53:20;19.70;70.20
2767;DHT22;1391;46.742;11.636;2022-07-22T01:55:49;19.70;70.40
2767;DHT22;1391;46.742;11.636;2022-07-22T01:58:16;19.90;71.00
2767;DHT22;1391;46.742;11.636;2022-07-22T02:00:44;19.70;70.90
2767;DHT22;1391;46.742;11.636;2022-07-22T02:03:11;19.80;70.60
2767;DHT22;1391;46.742;11.636;2022-07-22T02:05:39;19.60;71.30
2767;DHT22;1391;46.742;11.636;2022-07-22T02:08:09;19.70;67.90
2767;DHT22;1391;46.742;11.636;2022-07-22T02:10:37;19.80;67.60
2767;DHT22;1391;46.742;11.636;2022-07-22T02:13:06;20.20;66.80
2767;DHT22;1391;46.742;11.636;2022-07-22T02:15:33;20.30;67.50
2767;DHT22;1391;46.742;11.636;2022-07-22T02:18:05;19.80;68.60
2767;DHT22;1391;46.742;11.636;2022-07-22T02:20:36;19.70;70.90
2767;DHT22;1391;46.742;11.636;2022-07-22T02:23:03;19.90;70.50
2767;DHT22;1391;46.742;11.636;2022-07-22T02:25:31;19.90;71.30
2767;DHT22;1391;46.742;11.636;2022-07-22T02:27:58;19.60;71.40
2767;DHT22;1391;46.742;11.636;2022-07-22T02:30:27;19.70;70.80
2767;DHT22;1391;46.742;11.636;2022-07-22T02:32:54;19.90;69.80
2767;DHT22;1391;46.742;11.636;2022-07-22T02:35:21;19.80;67.70
2767;DHT22;1391;46.742;11.636;2022-07-22T02:37:48;19.70;72.30
2767;DHT22;1391;46.742;11.636;2022-07-22T02:40:16;19.70;70.50
2767;DHT22;1391;46.742;11.636;2022-07-22T02:42:44;19.60;71.80
2767;DHT22;1391;46.742;11.636;2022-07-22T02:45:11;19.90;73.50
2767;DHT22;1391;46.742;11.636;2022-07-22T02:47:47;19.20;74.10
2767;DHT22;1391;46.742;11.636;2022-07-22T02:50:15;19.20;74.90
2767;DHT22;1391;46.742;11.636;2022-07-22T02:52:43;19.00;76.40
2767;DHT22;1391;46.742;11.636;2022-07-22T02:55:10;19.30;76.80
2767;DHT22;1391;46.742;11.636;2022-07-22T02:57:37;19.30;77.40
2767;DHT22;1391;46.742;11.636;2022-07-22T03:00:05;18.50;78.00
2767;DHT22;1391;46.742;11.636;2022-07-22T03:02:34;18.60;78.30
2767;DHT22;1391;46.742;11.636;2022-07-22T03:05:03;19.10;79.60
2767;DHT22;1391;46.742;11.636;2022-07-22T03:07:32;19.00;78.40
2767;DHT22;1391;46.742;11.636;2022-07-22T03:09:59;18.50;78.80
2767;DHT22;1391;46.742;11.636;2022-07-22T03:12:26;18.60;78.10
2767;DHT22;1391;46.742;11.636;2022-07-22T03:14:53;19.10;77.50
2767;DHT22;1391;46.742;11.636;2022-07-22T03:17:21;18.60;78.70
2767;DHT22;1391;46.742;11.636;2022-07-22T03:19:48;18.40;76.80
2767;DHT22;1391;46.742;11.636;2022-07-22T03:22:16;18.40;78.40
2767;DHT22;1391;46.742;11.636;2022-07-22T03:24:43;18.50;76.80
2767;DHT22;1391;46.742;11.636;2022-07-22T03:27:11;18.50;78.20
2767;DHT22;1391;46.742;11.636;2022-07-22T03:29:38;18.80;80.00
2767;DHT22;1391;46.742;11.636;2022-07-22T03:32:05;18.50;80.80
2767;DHT22;1391;46.742;11.636;2022-07-22T03:34:32;18.50;80.70
2767;DHT22;1391;46.742;11.636;2022-07-22T03:36:59;18.50;82.60
2767;DHT22;1391;46.742;11.636;2022-07-22T03:39:28;18.50;82.50
2767;DHT22;1391;46.742;11.636;2022-07-22T03:41:55;18.00;86.40
2767;DHT22;1391;46.742;11.636;2022-07-22T03:44:22;18.00;87.30
2767;DHT22;1391;46.742;11.636;2022-07-22T03:46:50;17.90;88.60
2767;DHT22;1391;46.742;11.636;2022-07-22T03:49:17;18.10;89.70
2767;DHT22;1391;46.742;11.636;2022-07-22T03:51:44;18.00;90.40
2767;DHT22;1391;46.742;11.636;2022-07-22T03:54:11;17.80;89.90
2767;DHT22;1391;46.742;11.636;2022-07-22T03:56:40;18.00;90.20
2767;DHT22;1391;46.742;11.636;2022-07-22T03:59:08;17.90;90.50
2767;DHT22;1391;46.742;11.636;2022-07-22T04:01:35;18.40;88.80
2767;DHT22;1391;46.742;11.636;2022-07-22T04:04:02;17.90;89.20
2767;DHT22;1391;46.742;11.636;2022-07-22T04:06:29;17.90;91.20
2767;DHT22;1391;46.742;11.636;2022-07-22T04:08:56;18.40;89.00
2767;DHT22;1391;46.742;11.636;2022-07-22T04:11:24;18.60;87.20
2767;DHT22;1391;46.742;11.636;2022-07-22T04:13:53;18.40;86.50
2767;DHT22;1391;46.742;11.636;2022-07-22T04:16:20;18.50;85.00
2767;DHT22;1391;46.742;11.636;2022-07-22T04:18:47;18.50;85.80
2767;DHT22;1391;46.742;11.636;2022-07-22T04:21:15;18.70;87.00
2767;DHT22;1391;46.742;11.636;2022-07-22T04:23:42;18.40;87.10
2767;DHT22;1391;46.742;11.636;2022-07-22T04:26:09;18.50;85.10
2767;DHT22;1391;46.742;11.636;2022-07-22T04:28:37;19.00;84.40
2767;DHT22;1391;46.742;11.636;2022-07-22T04:31:06;19.20;84.70
2767;DHT22;1391;46.742;11.636;2022-07-22T04:33:33;19.00;87.20
2767;DHT22;1391;46.742;11.636;2022-07-22T04:36:00;19.20;87.00
2767;DHT22;1391;46.742;11.636;2022-07-22T04:38:28;19.00;84.30
2767;DHT22;1391;46.742;11.636;2022-07-22T04:40:55;19.10;86.20
2767;DHT22;1391;46.742;11.636;2022-07-22T04:43:23;19.20;88.40
2767;DHT22;1391;46.742;11.636;2022-07-22T04:45:50;19.70;88.70
2767;DHT22;1391;46.742;11.636;2022-07-22T04:48:19;19.70;89.70
2767;DHT22;1391;46.742;11.636;2022-07-22T04:50:46;20.00;85.30
2767;DHT22;1391;46.742;11.636;2022-07-22T04:53:14;20.00;83.50
2767;DHT22;1391;46.742;11.636;2022-07-22T04:55:41;19.90;89.00
2767;DHT22;1391;46.742;11.636;2022-07-22T04:58:08;19.70;90.20
2767;DHT22;1391;46.742;11.636;2022-07-22T05:00:36;19.80;85.00
2767;DHT22;1391;46.742;11.636;2022-07-22T05:03:03;20.30;82.90
2767;DHT22;1391;46.742;11.636;2022-07-22T05:05:31;20.50;77.00
2767;DHT22;1391;46.742;11.636;2022-07-22T05:07:59;20.40;80.10
2767;DHT22;1391;46.742;11.636;2022-07-22T05:10:28;21.20;73.30
2767;DHT22;1391;46.742;11.636;2022-07-22T05:12:55;20.40;76.10
2767;DHT22;1391;46.742;11.636;2022-07-22T05:15:23;21.30;75.50
2767;DHT22;1391;46.742;11.636;2022-07-22T05:17:50;20.90;75.70
2767;DHT22;1391;46.742;11.636;2022-07-22T05:20:17;20.90;74.20
2767;DHT22;1391;46.742;11.636;2022-07-22T05:22:46;21.00;73.70
2767;DHT22;1391;46.742;11.636;2022-07-22T05:25:13;21.00;76.20
2767;DHT22;1391;46.742;11.636;2022-07-22T05:27:49;21.40;71.40
2767;DHT22;1391;46.742;11.636;2022-07-22T05:30:17;21.10;68.50
2767;DHT22;1391;46.742;11.636;2022-07-22T05:32:45;21.20;66.90
2767;DHT22;1391;46.742;11.636;2022-07-22T05:35:13;22.00;67.80
2767;DHT22;1391;46.742;11.636;2022-07-22T05:37:40;21.80;67.30
2767;DHT22;1391;46.742;11.636;2022-07-22T05:40:09;22.00;66.10
2767;DHT22;1391;46.742;11.636;2022-07-22T05:42:37;21.90;64.70
2767;DHT22;1391;46.742;11.636;2022-07-22T05:45:05;22.10;64.60
2767;DHT22;1391;46.742;11.636;2022-07-22T05:47:33;22.20;64.40
2767;DHT22;1391;46.742;11.636;2022-07-22T05:50:00;22.20;64.40
2767;DHT22;1391;46.742;11.636;2022-07-22T05:52:27;22.70;63.20
2767;DHT22;1391;46.742;11.636;2022-07-22T05:54:55;22.50;63.10
2767;DHT22;1391;46.742;11.636;2022-07-22T05:57:23;22.50;63.00
2767;DHT22;1391;46.742;11.636;2022-07-22T05:59:50;22.60;61.90
2767;DHT22;1391;46.742;11.636;2022-07-22T06:02:18;22.70;62.80
2767;DHT22;1391;46.742;11.636;2022-07-22T06:04:45;22.60;67.80
2767;DHT22;1391;46.742;11.636;2022-07-22T06:07:12;22.80;64.40
2767;DHT22;1391;46.742;11.636;2022-07-22T06:09:39;22.80;63.90
2767;DHT22;1391;46.742;11.636;2022-07-22T06:12:07;22.90;64.00
2767;DHT22;1391;46.742;11.636;2022-07-22T06:14:36;22.70;61.20
2767;DHT22;1391;46.742;11.636;2022-07-22T06:17:03;23.30;63.00
2767;DHT22;1391;46.742;11.636;2022-07-22T06:19:30;23.40;62.00
2767;DHT22;1391;46.742;11.636;2022-07-22T06:21:57;22.70;59.70
2767;DHT22;1391;46.742;11.636;2022-07-22T06:24:25;23.40;58.20
2767;DHT22;1391;46.742;11.636;2022-07-22T06:26:52;23.30;59.40
2767;DHT22;1391;46.742;11.636;2022-07-22T06:29:19;23.50;58.30
2767;DHT22;1391;46.742;11.636;2022-07-22T06:31:48;23.40;58.90
2767;DHT22;1391;46.742;11.636;2022-07-22T06:34:15;23.40;58.00
2767;DHT22;1391;46.742;11.636;2022-07-22T06:36:43;23.50;56.10
2767;DHT22;1391;46.742;11.636;2022-07-22T06:39:10;23.60;55.30
2767;DHT22;1391;46.742;11.636;2022-07-22T06:41:37;23.50;55.40
2767;DHT22;1391;46.742;11.636;2022-07-22T06:44:05;23.60;56.20
2767;DHT22;1391;46.742;11.636;2022-07-22T06:46:32;23.60;56.20
2767;DHT22;1391;46.742;11.636;2022-07-22T06:49:01;24.20;55.90
2767;DHT22;1391;46.742;11.636;2022-07-22T06:51:28;24.30;55.60
2767;DHT22;1391;46.742;11.636;2022-07-22T06:53:55;24.30;54.90
2767;DHT22;1391;46.742;11.636;2022-07-22T06:56:22;24.30;52.10
2767;DHT22;1391;46.742;11.636;2022-07-22T06:58:49;24.40;51.60
2767;DHT22;1391;46.742;11.636;2022-07-22T07:01:17;24.50;50.80
2767;DHT22;1391;46.742;11.636;2022-07-22T07:03:44;24.40;50.70
2767;DHT22;1391;46.742;11.636;2022-07-22T07:06:12;25.00;48.80
2767;DHT22;1391;46.742;11.636;2022-07-22T07:08:40;25.00;50.60
2767;DHT22;1391;46.742;11.636;2022-07-22T07:11:07;25.30;50.20
2767;DHT22;1391;46.742;11.636;2022-07-22T07:13:35;25.50;48.60
2767;DHT22;1391;46.742;11.636;2022-07-22T07:16:02;25.40;49.20
2767;DHT22;1391;46.742;11.636;2022-07-22T07:18:31;25.40;48.50
2767;DHT22;1391;46.742;11.636;2022-07-22T07:20:58;25.40;45.20
2767;DHT22;1391;46.742;11.636;2022-07-22T07:23:26;25.30;46.20
2767;DHT22;1391;46.742;11.636;2022-07-22T07:25:54;25.30;46.30
2767;DHT22;1391;46.742;11.636;2022-07-22T07:28:21;25.50;45.90
2767;DHT22;1391;46.742;11.636;2022-07-22T07:30:48;26.10;46.20
2767;DHT22;1391;46.742;11.636;2022-07-22T07:33:16;26.20;43.80
2767;DHT22;1391;46.742;11.636;2022-07-22T07:35:44;26.20;44.50
2767;DHT22;1391;46.742;11.636;2022-07-22T07:38:11;26.50;46.10
2767;DHT22;1391;46.742;11.636;2022-07-22T07:40:40;27.00;45.40
2767;DHT22;1391;46.742;11.636;2022-07-22T07:43:07;27.30;43.20
2767;DHT22;1391;46.742;11.636;2022-07-22T07:45:35;27.00;41.30
2767;DHT22;1391;46.742;11.636;2022-07-22T07:48:03;27.30;42.20
2767;DHT22;1391;46.742;11.636;2022-07-22T07:50:30;26.70;37.90
2767;DHT22;1391;46.742;11.636;2022-07-22T07:52:58;27.00;40.00
2767;DHT22;1391;46.742;11.636;2022-07-22T07:55:25;27.30;39.90
2767;DHT22;1391;46.742;11.636;2022-07-22T07:57:54;27.10;40.60
2767;DHT22;1391;46.742;11.636;2022-07-22T08:00:24;27.50;42.80
2767;DHT22;1391;46.742;11.636;2022-07-22T08:02:53;28.30;38.30
2767;DHT22;1391;46.742;11.636;2022-07-22T08:05:22;28.30;38.40
2767;DHT22;1391;46.742;11.636;2022-07-22T08:07:49;28.40;37.20
2767;DHT22;1391;46.742;11.636;2022-07-22T08:10:17;28.30;37.40
2767;DHT22;1391;46.742;11.636;2022-07-22T08:12:45;28.20;37.70
2767;DHT22;1391;46.742;11.636;2022-07-22T08:15:14;28.50;38.50
2767;DHT22;1391;46.742;11.636;2022-07-22T08:17:41;28.20;36.00
2767;DHT22;1391;46.742;11.636;2022-07-22T08:20:08;28.10;38.50
2767;DHT22;1391;46.742;11.636;2022-07-22T08:22:36;28.40;36.30
2767;DHT22;1391;46.742;11.636;2022-07-22T08:25:04;29.20;35.20
2767;DHT22;1391;46.742;11.636;2022-07-22T08:27:32;28.20;37.10
2767;DHT22;1391;46.742;11.636;2022-07-22T08:29:59;29.60;37.50
2767;DHT22;1391;46.742;11.636;2022-07-22T08:32:31;28.40;35.10
2767;DHT22;1391;46.742;11.636;2022-07-22T08:35:00;28.20;36.70
2767;DHT22;1391;46.742;11.636;2022-07-22T08:37:27;29.70;34.60
2767;DHT22;1391;46.742;11.636;2022-07-22T08:39:55;29.30;33.50
2767;DHT22;1391;46.742;11.636;2022-07-22T08:42:24;29.70;33.20
2767;DHT22;1391;46.742;11.636;2022-07-22T08:44:52;29.50;30.90
2767;DHT22;1391;46.742;11.636;2022-07-22T08:47:22;29.70;31.10
2767;DHT22;1391;46.742;11.636;2022-07-22T08:49:50;29.40;32.90
2767;DHT22;1391;46.742;11.636;2022-07-22T08:52:18;29.30;31.80
2767;DHT22;1391;46.742;11.636;2022-07-22T08:54:45;29.30;32.40
2767;DHT22;1391;46.742;11.636;2022-07-22T08:57:12;29.60;33.60
2767;DHT22;1391;46.742;11.636;2022-07-22T08:59:50;30.20;30.60
2767;DHT22;1391;46.742;11.636;2022-07-22T09:02:19;31.00;29.50
2767;DHT22;1391;46.742;11.636;2022-07-22T09:04:54;32.10;27.50
2767;DHT22;1391;46.742;11.636;2022-07-22T09:07:27;30.90;29.50
2767;DHT22;1391;46.742;11.636;2022-07-22T09:09:58;30.70;28.10
2767;DHT22;1391;46.742;11.636;2022-07-22T09:12:26;31.00;31.20
2767;DHT22;1391;46.742;11.636;2022-07-22T09:14:57;32.00;25.70
2767;DHT22;1391;46.742;11.636;2022-07-22T09:17:27;32.10;28.50
2767;DHT22;1391;46.742;11.636;2022-07-22T09:19:58;31.00;27.10
2767;DHT22;1391;46.742;11.636;2022-07-22T09:22:38;30.80;29.70
2767;DHT22;1391;46.742;11.636;2022-07-22T09:25:30;30.80;27.50
2767;DHT22;1391;46.742;11.636;2022-07-22T09:28:11;31.70;28.00
2767;DHT22;1391;46.742;11.636;2022-07-22T09:30:45;31.50;26.20
2767;DHT22;1391;46.742;11.636;2022-07-22T09:33:13;31.60;27.00
2767;DHT22;1391;46.742;11.636;2022-07-22T09:35:42;31.80;25.90
2767;DHT22;1391;46.742;11.636;2022-07-22T09:38:11;31.20;27.50
2767;DHT22;1391;46.742;11.636;2022-07-22T09:40:42;32.00;24.10
2767;DHT22;1391;46.742;11.636;2022-07-22T09:43:11;32.60;23.70
2767;DHT22;1391;46.742;11.636;2022-07-22T09:45:46;31.90;24.90
2767;DHT22;1391;46.742;11.636;2022-07-22T09:48:16;32.60;26.10
2767;DHT22;1391;46.742;11.636;2022-07-22T09:50:46;32.90;25.60
2767;DHT22;1391;46.742;11.636;2022-07-22T09:53:19;33.00;22.90
2767;DHT22;1391;46.742;11.636;2022-07-22T09:55:47;32.80;22.60
2767;DHT22;1391;46.742;11.636;2022-07-22T09:58:15;32.70;22.80
2767;DHT22;1391;46.742;11.636;2022-07-22T10:00:43;32.60;22.50
2767;DHT22;1391;46.742;11.636;2022-07-22T10:03:13;33.40;23.90
2767;DHT22;1391;46.742;11.636;2022-07-22T10:05:46;33.20;22.00
2767;DHT22;1391;46.742;11.636;2022-07-22T10:08:13;32.80;22.50
2767;DHT22;1391;46.742;11.636;2022-07-22T10:10:41;33.00;21.40
2767;DHT22;1391;46.742;11.636;2022-07-22T10:13:08;33.40;22.00
2767;DHT22;1391;46.742;11.636;2022-07-22T10:15:37;33.50;21.10
2767;DHT22;1391;46.742;11.636;2022-07-22T10:18:06;33.00;21.10
2767;DHT22;1391;46.742;11.636;2022-07-22T10:20:35;33.00;21.80
2767;DHT22;1391;46.742;11.636;2022-07-22T10:23:05;34.20;21.70
2767;DHT22;1391;46.742;11.636;2022-07-22T10:25:48;33.20;21.30
2767;DHT22;1391;46.742;11.636;2022-07-22T10:28:22;33.30;20.00
2767;DHT22;1391;46.742;11.636;2022-07-22T10:30:51;33.60;20.30
2767;DHT22;1391;46.742;11.636;2022-07-22T10:33:19;33.30;20.10
2767;DHT22;1391;46.742;11.636;2022-07-22T10:35:56;33.20;20.70
2767;DHT22;1391;46.742;11.636;2022-07-22T10:38:28;34.30;19.20
2767;DHT22;1391;46.742;11.636;2022-07-22T10:40:58;33.90;20.70
2767;DHT22;1391;46.742;11.636;2022-07-22T10:43:28;33.10;20.10
2767;DHT22;1391;46.742;11.636;2022-07-22T10:45:57;33.30;20.20
2767;DHT22;1391;46.742;11.636;2022-07-22T10:48:44;33.80;18.70
2767;DHT22;1391;46.742;11.636;2022-07-22T10:51:21;33.60;20.00
2767;DHT22;1391;46.742;11.636;2022-07-22T10:53:55;33.10;19.80
2767;DHT22;1391;46.742;11.636;2022-07-22T10:56:26;32.80;20.50
2767;DHT22;1391;46.742;11.636;2022-07-22T10:59:09;33.20;20.00
2767;DHT22;1391;46.742;11.636;2022-07-22T11:01:44;33.50;18.80
2767;DHT22;1391;46.742;11.636;2022-07-22T11:04:16;33.20;19.50
2767;DHT22;1391;46.742;11.636;2022-07-22T11:06:48;34.20;19.00
2767;DHT22;1391;46.742;11.636;2022-07-22T11:09:19;33.80;18.00
2767;DHT22;1391;46.742;11.636;2022-07-22T11:11:56;33.00;18.70
2767;DHT22;1391;46.742;11.636;2022-07-22T11:14:24;33.10;19.00
2767;DHT22;1391;46.742;11.636;2022-07-22T11:17:04;33.00;19.00
2767;DHT22;1391;46.742;11.636;2022-07-22T11:19:36;32.70;19.70
2767;DHT22;1391;46.742;11.636;2022-07-22T11:22:06;32.80;18.50
2767;DHT22;1391;46.742;11.636;2022-07-22T11:24:36;33.20;19.30
2767;DHT22;1391;46.742;11.636;2022-07-22T11:27:09;33.00;18.70
2767;DHT22;1391;46.742;11.636;2022-07-22T11:29:41;33.20;18.20
2767;DHT22;1391;46.742;11.636;2022-07-22T11:32:12;34.30;17.50
2767;DHT22;1391;46.742;11.636;2022-07-22T11:34:41;34.30;17.70
2767;DHT22;1391;46.742;11.636;2022-07-22T11:37:15;34.30;16.80
2767;DHT22;1391;46.742;11.636;2022-07-22T11:39:59;34.70;15.80
2767;DHT22;1391;46.742;11.636;2022-07-22T11:42:27;34.30;14.50
2767;DHT22;1391;46.742;11.636;2022-07-22T11:44:55;34.60;12.50
2767;DHT22;1391;46.742;11.636;2022-07-22T11:47:32;34.60;14.50
2767;DHT22;1391;46.742;11.636;2022-07-22T11:50:00;34.70;14.80
2767;DHT22;1391;46.742;11.636;2022-07-22T11:52:30;34.40;14.60
2767;DHT22;1391;46.742;11.636;2022-07-22T11:54:59;34.80;14.30
2767;DHT22;1391;46.742;11.636;2022-07-22T11:57:28;34.60;14.30
2767;DHT22;1391;46.742;11.636;2022-07-22T11:59:55;34.60;12.40
2767;DHT22;1391;46.742;11.636;2022-07-22T12:02:32;35.00;12.70
2767;DHT22;1391;46.742;11.636;2022-07-22T12:05:00;34.90;11.00
2767;DHT22;1391;46.742;11.636;2022-07-22T12:07:27;34.80;11.60
2767;DHT22;1391;46.742;11.636;2022-07-22T12:09:54;35.10;12.60
2767;DHT22;1391;46.742;11.636;2022-07-22T12:12:39;34.80;12.30
2767;DHT22;1391;46.742;11.636;2022-07-22T12:15:08;34.40;12.80
2767;DHT22;1391;46.742;11.636;2022-07-22T12:17:36;34.40;13.00
2767;DHT22;1391;46.742;11.636;2022-07-22T12:20:10;34.60;10.70
2767;DHT22;1391;46.742;11.636;2022-07-22T12:22:45;35.10;10.40
2767;DHT22;1391;46.742;11.636;2022-07-22T12:25:13;35.20;10.10
2767;DHT22;1391;46.742;11.636;2022-07-22T12:27:59;35.30;8.10
2767;DHT22;1391;46.742;11.636;2022-07-22T12:30:27;35.10;9.40
2767;DHT22;1391;46.742;11.636;2022-07-22T12:32:54;35.10;10.30
2767;DHT22;1391;46.742;11.636;2022-07-22T12:35:25;35.40;10.00
2767;DHT22;1391;46.742;11.636;2022-07-22T12:37:53;35.70;10.30
2767;DHT22;1391;46.742;11.636;2022-07-22T12:40:21;35.20;10.60
2767;DHT22;1391;46.742;11.636;2022-07-22T12:43:02;35.00;10.00
2767;DHT22;1391;46.742;11.636;2022-07-22T12:45:33;35.20;8.90
2767;DHT22;1391;46.742;11.636;2022-07-22T12:48:08;35.30;9.30
2767;DHT22;1391;46.742;11.636;2022-07-22T12:50:38;35.50;8.50
2767;DHT22;1391;46.742;11.636;2022-07-22T12:53:07;35.10;7.00
2767;DHT22;1391;46.742;11.636;2022-07-22T12:55:38;35.00;8.90
2767;DHT22;1391;46.742;11.636;2022-07-22T12:58:09;35.20;9.50
2767;DHT22;1391;46.742;11.636;2022-07-22T13:00:39;35.30;9.40
2767;DHT22;1391;46.742;11.636;2022-07-22T13:03:07;35.30;7.90
2767;DHT22;1391;46.742;11.636;2022-07-22T13:05:35;35.20;9.00
2767;DHT22;1391;46.742;11.636;2022-07-22T13:08:04;35.60;8.90
2767;DHT22;1391;46.742;11.636;2022-07-22T13:10:34;35.50;6.80
2767;DHT22;1391;46.742;11.636;2022-07-22T13:13:01;36.00;6.10
2767;DHT22;1391;46.742;11.636;2022-07-22T13:15:30;35.50;7.00
2767;DHT22;1391;46.742;11.636;2022-07-22T13:17:57;35.20;7.40
2767;DHT22;1391;46.742;11.636;2022-07-22T13:20:24;35.20;8.20
2767;DHT22;1391;46.742;11.636;2022-07-22T13:22:53;35.00;7.70
2767;DHT22;1391;46.742;11.636;2022-07-22T13:25:20;35.10;8.20
2767;DHT22;1391;46.742;11.636;2022-07-22T13:27:47;35.10;7.80
2767;DHT22;1391;46.742;11.636;2022-07-22T13:30:15;35.30;8.30
2767;DHT22;1391;46.742;11.636;2022-07-22T13:32:43;35.70;8.00
2767;DHT22;1391;46.742;11.636;2022-07-22T13:35:11;35.20;8.10
2767;DHT22;1391;46.742;11.636;2022-07-22T13:37:38;35.40;8.90
2767;DHT22;1391;46.742;11.636;2022-07-22T13:40:06;35.70;8.10
2767;DHT22;1391;46.742;11.636;2022-07-22T13:42:35;35.50;6.60
2767;DHT22;1391;46.742;11.636;2022-07-22T13:45:03;35.60;6.20
2767;DHT22;1391;46.742;11.636;2022-07-22T13:47:31;35.50;7.10
2767;DHT22;1391;46.742;11.636;2022-07-22T13:50:00;35.80;7.10
2767;DHT22;1391;46.742;11.636;2022-07-22T13:52:27;35.50;7.00
2767;DHT22;1391;46.742;11.636;2022-07-22T13:54:55;35.40;5.60
2767;DHT22;1391;46.742;11.636;2022-07-22T13:57:22;35.40;6.60
2767;DHT22;1391;46.742;11.636;2022-07-22T13:59:49;35.40;6.50
2767;DHT22;1391;46.742;11.636;2022-07-22T14:02:17;35.60;8.30
2767;DHT22;1391;46.742;11.636;2022-07-22T14:04:44;35.50;7.50
2767;DHT22;1391;46.742;11.636;2022-07-22T14:07:13;35.30;6.40
2767;DHT22;1391;46.742;11.636;2022-07-22T14:09:40;35.30;7.20
2767;DHT22;1391;46.742;11.636;2022-07-22T14:12:08;35.20;7.20
2767;DHT22;1391;46.742;11.636;2022-07-22T14:14:36;35.10;7.40
2767;DHT22;1391;46.742;11.636;2022-07-22T14:17:03;35.00;6.90
2767;DHT22;1391;46.742;11.636;2022-07-22T14:19:31;35.10;7.80
2767;DHT22;1391;46.742;11.636;2022-07-22T14:21:58;35.50;7.40
2767;DHT22;1391;46.742;11.636;2022-07-22T14:24:27;35.10;7.40
2767;DHT22;1391;46.742;11.636;2022-07-22T14:26:54;35.30;6.60
2767;DHT22;1391;46.742;11.636;2022-07-22T14:29:23;35.20;5.70
2767;DHT22;1391;46.742;11.636;2022-07-22T14:31:50;35.00;8.00
2767;DHT22;1391;46.742;11.636;2022-07-22T14:34:17;35.10;7.20
2767;DHT22;1391;46.742;11.636;2022-07-22T14:36:45;34.90;7.80
2767;DHT22;1391;46.742;11.636;2022-07-22T14:39:14;35.00;7.60
2767;DHT22;1391;46.742;11.636;2022-07-22T14:41:43;34.90;7.20
2767;DHT22;1391;46.742;11.636;2022-07-22T14:44:12;34.90;7.40
2767;DHT22;1391;46.742;11.636;2022-07-22T14:46:42;34.90;7.70
2767;DHT22;1391;46.742;11.636;2022-07-22T14:49:11;34.90;8.10
2767;DHT22;1391;46.742;11.636;2022-07-22T14:51:40;35.00;7.70
2767;DHT22;1391;46.742;11.636;2022-07-22T14:54:07;34.90;7.00
2767;DHT22;1391;46.742;11.636;2022-07-22T14:56:37;35.00;6.80
2767;DHT22;1391;46.742;11.636;2022-07-22T14:59:08;34.90;5.60
2767;DHT22;1391;46.742;11.636;2022-07-22T15:01:36;35.00;6.30
2767;DHT22;1391;46.742;11.636;2022-07-22T15:04:03;34.90;8.10
2767;DHT22;1391;46.742;11.636;2022-07-22T15:06:30;34.80;8.60
2767;DHT22;1391;46.742;11.636;2022-07-22T15:08:57;34.70;9.90
2767;DHT22;1391;46.742;11.636;2022-07-22T15:11:25;34.70;9.40
2767;DHT22;1391;46.742;11.636;2022-07-22T15:13:52;34.80;8.70
2767;DHT22;1391;46.742;11.636;2022-07-22T15:16:21;34.90;9.00
2767;DHT22;1391;46.742;11.636;2022-07-22T15:18:48;34.50;9.10
2767;DHT22;1391;46.742;11.636;2022-07-22T15:21:15;34.60;9.20
2767;DHT22;1391;46.742;11.636;2022-07-22T15:23:43;34.80;10.10
2767;DHT22;1391;46.742;11.636;2022-07-22T15:26:10;34.70;9.40
2767;DHT22;1391;46.742;11.636;2022-07-22T15:28:38;34.40;10.70
2767;DHT22;1391;46.742;11.636;2022-07-22T15:31:06;34.40;10.00
2767;DHT22;1391;46.742;11.636;2022-07-22T15:33:35;34.20;10.30
2767;DHT22;1391;46.742;11.636;2022-07-22T15:36:02;34.30;10.20
2767;DHT22;1391;46.742;11.636;2022-07-22T15:38:30;34.40;10.30
2767;DHT22;1391;46.742;11.636;2022-07-22T15:40:57;34.40;10.40
2767;DHT22;1391;46.742;11.636;2022-07-22T15:43:24;34.30;10.50
2767;DHT22;1391;46.742;11.636;2022-07-22T15:45:51;34.10;11.40
2767;DHT22;1391;46.742;11.636;2022-07-22T15:48:18;34.40;12.50
2767;DHT22;1391;46.742;11.636;2022-07-22T15:50:47;33.60;12.00
2767;DHT22;1391;46.742;11.636;2022-07-22T15:53:14;33.30;12.70
2767;DHT22;1391;46.742;11.636;2022-07-22T15:55:42;33.30;13.40
2767;DHT22;1391;46.742;11.636;2022-07-22T15:58:09;33.60;14.00